sensor_id;sensor_type;location;lat;lon;timestamp;temperature;humidity
21616;DHT22;10970;48.714;9.584;2022-09-03T00:00:52;17.50;99.90
21616;DHT22;10970;48.714;9.584;2022-09-03T00:05:53;17.60;99.90
21616;DHT22;10970;48.714;9.584;2022-09-03T00:08:36;17.60;99.90
21616;DHT22;10970;48.714;9.584;2022-09-03T00:11:48;17.60;99.90
21616;DHT22;10970;48.714;9.584;2022-09-03T00:14:09;17.70;99.90
21616;DHT22;10970;48.714;9.584;2022-09-03T00:16:59;17.70;99.90
21616;DHT22;10970;48.714;9.584;2022-09-03T00:19:36;17.60;99.90
21616;DHT22;10970;48.714;9.584;2022-09-03T00:22:18;17.70;99.90
21616;DHT22;10970;48.714;9.584;2022-09-03T00:24:47;17.70;99.90
21616;DHT22;10970;48.714;9.584;2022-09-03T00:27:17;17.60;99.90
21616;DHT22;10970;48.714;9.584;2022-09-03T00:35:15;17.50;99.90
21616;DHT22;10970;48.714;9.584;2022-09-03T00:37:42;17.50;99.90
21616;DHT22;10970;48.714;9.584;2022-09-03T00:40:19;17.50;99.90
21616;DHT22;10970;48.714;9.584;2022-09-03T00:48:47;17.50;99.90
21616;DHT22;10970;48.714;9.584;2022-09-03T00:54:57;17.50;99.90
21616;DHT22;10970;48.714;9.584;2022-09-03T01:00:14;17.50;99.90
21616;DHT22;10970;48.714;9.584;2022-09-03T01:17:03;17.60;99.90
21616;DHT22;10970;48.714;9.584;2022-09-03T01:23:01;17.60;99.90
21616;DHT22;10970;48.714;9.584;2022-09-03T01:25:57;17.60;99.90
21616;DHT22;10970;48.714;9.584;2022-09-03T01:34:30;17.50;99.90
21616;DHT22;10970;48.714;9.584;2022-09-03T01:40:08;17.50;99.90
21616;DHT22;10970;48.714;9.584;2022-09-03T02:04:32;17.40;99.90
21616;DHT22;10970;48.714;9.584;2022-09-03T02:06:59;17.50;99.90
21616;DHT22;10970;48.714;9.584;2022-09-03T02:09:26;17.50;99.90
21616;DHT22;10970;48.714;9.584;2022-09-03T02:14:25;17.60;99.90
21616;DHT22;10970;48.714;9.584;2022-09-03T02:16:52;17.40;99.90
21616;DHT22;10970;48.714;9.584;2022-09-03T02:19:18;17.40;99.90
21616;DHT22;10970;48.714;9.584;2022-09-03T02:21:49;17.40;99.90
21616;DHT22;10970;48.714;9.584;2022-09-03T02:24:16;17.40;99.90
21616;DHT22;10970;48.714;9.584;2022-09-03T02:26:42;17.40;99.90
21616;DHT22;10970;48.714;9.584;2022-09-03T02:29:09;17.40;99.90
21616;DHT22;10970;48.714;9.584;2022-09-03T02:31:35;17.40;99.90
21616;DHT22;10970;48.714;9.584;2022-09-03T02:34:01;17.40;99.90
21616;DHT22;10970;48.714;9.584;2022-09-03T02:36:30;17.30;99.90
21616;DHT22;10970;48.714;9.584;2022-09-03T02:38:56;17.30;99.90
21616;DHT22;10970;48.714;9.584;2022-09-03T02:41:22;17.30;99.90
21616;DHT22;10970;48.714;9.584;2022-09-03T02:47:00;17.20;99.90
21616;DHT22;10970;48.714;9.584;2022-09-03T02:49:27;17.10;99.90
21616;DHT22;10970;48.714;9.584;2022-09-03T02:51:57;17.00;99.90
21616;DHT22;10970;48.714;9.584;2022-09-03T02:54:25;17.00;99.90
21616;DHT22;10970;48.714;9.584;2022-09-03T02:56:51;16.90;99.90
21616;DHT22;10970;48.714;9.584;2022-09-03T02:59:16;16.90;99.90
21616;DHT22;10970;48.714;9.584;2022-09-03T03:01:42;16.80;99.90
21616;DHT22;10970;48.714;9.584;2022-09-03T03:04:08;16.70;99.90
21616;DHT22;10970;48.714;9.584;2022-09-03T03:06:33;16.80;99.90
21616;DHT22;10970;48.714;9.584;2022-09-03T03:08:59;16.70;99.90
21616;DHT22;10970;48.714;9.584;2022-09-03T03:11:29;16.70;99.90
21616;DHT22;10970;48.714;9.584;2022-09-03T03:13:55;16.70;99.90
21616;DHT22;10970;48.714;9.584;2022-09-03T03:16:21;16.60;99.90
21616;DHT22;10970;48.714;9.584;2022-09-03T03:18:46;16.60;99.90
21616;DHT22;10970;48.714;9.584;2022-09-03T03:21:14;16.60;99.90
21616;DHT22;10970;48.714;9.584;2022-09-03T03:23:40;16.60;99.90
21616;DHT22;10970;48.714;9.584;2022-09-03T03:26:08;16.60;99.90
21616;DHT22;10970;48.714;9.584;2022-09-03T03:28:34;16.60;99.90
21616;DHT22;10970;48.714;9.584;2022-09-03T03:31:07;16.60;99.90
21616;DHT22;10970;48.714;9.584;2022-09-03T03:33:34;16.60;99.90
21616;DHT22;10970;48.714;9.584;2022-09-03T03:36:06;16.60;99.90
21616;DHT22;10970;48.714;9.584;2022-09-03T03:38:34;16.60;99.90
21616;DHT22;10970;48.714;9.584;2022-09-03T03:41:06;16.50;99.90
21616;DHT22;10970;48.714;9.584;2022-09-03T03:43:32;16.50;99.90
21616;DHT22;10970;48.714;9.584;2022-09-03T03:45:58;16.40;99.90
21616;DHT22;10970;48.714;9.584;2022-09-03T03:48:24;16.40;99.90
21616;DHT22;10970;48.714;9.584;2022-09-03T03:50:51;16.30;99.90
21616;DHT22;10970;48.714;9.584;2022-09-03T03:53:17;16.30;99.90
21616;DHT22;10970;48.714;9.584;2022-09-03T03:55:42;16.30;99.90
21616;DHT22;10970;48.714;9.584;2022-09-03T03:58:08;16.30;99.90
21616;DHT22;10970;48.714;9.584;2022-09-03T04:00:33;16.20;99.90
21616;DHT22;10970;48.714;9.584;2022-09-03T04:03:02;16.20;99.90
21616;DHT22;10970;48.714;9.584;2022-09-03T04:05:29;16.10;99.90
21616;DHT22;10970;48.714;9.584;2022-09-03T04:07:54;16.10;99.90
21616;DHT22;10970;48.714;9.584;2022-09-03T04:10:20;16.10;99.90
21616;DHT22;10970;48.714;9.584;2022-09-03T04:12:46;16.00;99.90
21616;DHT22;10970;48.714;9.584;2022-09-03T04:15:11;16.00;99.90
21616;DHT22;10970;48.714;9.584;2022-09-03T04:17:37;16.00;99.90
21616;DHT22;10970;48.714;9.584;2022-09-03T04:20:04;16.00;99.90
21616;DHT22;10970;48.714;9.584;2022-09-03T04:22:30;16.00;99.90
21616;DHT22;10970;48.714;9.584;2022-09-03T04:24:55;16.00;99.90
21616;DHT22;10970;48.714;9.584;2022-09-03T04:27:21;16.00;99.90
21616;DHT22;10970;48.714;9.584;2022-09-03T04:29:47;16.00;99.90
21616;DHT22;10970;48.714;9.584;2022-09-03T04:32:12;16.00;99.90
21616;DHT22;10970;48.714;9.584;2022-09-03T04:34:57;16.00;99.90
21616;DHT22;10970;48.714;9.584;2022-09-03T04:37:22;16.00;99.90
21616;DHT22;10970;48.714;9.584;2022-09-03T04:39:48;16.00;99.90
21616;DHT22;10970;48.714;9.584;2022-09-03T04:42:13;16.00;99.90
21616;DHT22;10970;48.714;9.584;2022-09-03T04:44:39;16.00;99.90
21616;DHT22;10970;48.714;9.584;2022-09-03T04:47:05;16.00;99.90
21616;DHT22;10970;48.714;9.584;2022-09-03T04:49:31;16.00;99.90
21616;DHT22;10970;48.714;9.584;2022-09-03T04:51:56;16.10;99.90
21616;DHT22;10970;48.714;9.584;2022-09-03T04:54:22;16.10;99.90
21616;DHT22;10970;48.714;9.584;2022-09-03T04:56:48;16.10;99.90
21616;DHT22;10970;48.714;9.584;2022-09-03T04:59:14;16.10;99.90
21616;DHT22;10970;48.714;9.584;2022-09-03T05:01:41;16.10;99.90
21616;DHT22;10970;48.714;9.584;2022-09-03T05:04:07;16.10;99.90
21616;DHT22;10970;48.714;9.584;2022-09-03T05:06:34;16.10;99.90
21616;DHT22;10970;48.714;9.584;2022-09-03T05:08:59;16.20;99.90
21616;DHT22;10970;48.714;9.584;2022-09-03T05:11:26;16.20;99.90
21616;DHT22;10970;48.714;9.584;2022-09-03T05:13:54;16.20;99.90
21616;DHT22;10970;48.714;9.584;2022-09-03T05:16:21;16.20;99.90
21616;DHT22;10970;48.714;9.584;2022-09-03T05:18:51;16.20;99.90
21616;DHT22;10970;48.714;9.584;2022-09-03T05:21:18;16.20;99.90
21616;DHT22;10970;48.714;9.584;2022-09-03T05:23:46;16.20;99.90
21616;DHT22;10970;48.714;9.584;2022-09-03T05:26:17;16.20;99.90
21616;DHT22;10970;48.714;9.584;2022-09-03T05:28:44;16.20;99.90
21616;DHT22;10970;48.714;9.584;2022-09-03T05:31:17;16.20;99.90
21616;DHT22;10970;48.714;9.584;2022-09-03T05:33:48;16.20;99.90
21616;DHT22;10970;48.714;9.584;2022-09-03T05:36:17;16.20;99.90
21616;DHT22;10970;48.714;9.584;2022-09-03T05:38:44;16.20;99.90
21616;DHT22;10970;48.714;9.584;2022-09-03T05:41:11;16.20;99.90
21616;DHT22;10970;48.714;9.584;2022-09-03T05:43:37;16.20;99.90
21616;DHT22;10970;48.714;9.584;2022-09-03T05:46:06;16.30;99.90
21616;DHT22;10970;48.714;9.584;2022-09-03T05:48:34;16.30;99.90
21616;DHT22;10970;48.714;9.584;2022-09-03T05:51:01;16.30;99.90
21616;DHT22;10970;48.714;9.584;2022-09-03T05:53:28;16.30;99.90
21616;DHT22;10970;48.714;9.584;2022-09-03T05:55:58;16.30;99.90
21616;DHT22;10970;48.714;9.584;2022-09-03T05:58:24;16.30;99.90
21616;DHT22;10970;48.714;9.584;2022-09-03T06:00:54;16.30;99.90
21616;DHT22;10970;48.714;9.584;2022-09-03T06:03:19;16.40;99.90
21616;DHT22;10970;48.714;9.584;2022-09-03T06:05:52;16.40;99.90
21616;DHT22;10970;48.714;9.584;2022-09-03T06:08:20;16.40;99.90
21616;DHT22;10970;48.714;9.584;2022-09-03T06:10:46;16.40;99.90
21616;DHT22;10970;48.714;9.584;2022-09-03T06:13:11;16.50;99.90
21616;DHT22;10970;48.714;9.584;2022-09-03T06:15:37;16.50;99.90
21616;DHT22;10970;48.714;9.584;2022-09-03T06:18:04;16.60;99.90
21616;DHT22;10970;48.714;9.584;2022-09-03T06:20:29;16.50;99.90
21616;DHT22;10970;48.714;9.584;2022-09-03T06:22:57;16.60;99.90
21616;DHT22;10970;48.714;9.584;2022-09-03T06:25:22;16.70;99.90
21616;DHT22;10970;48.714;9.584;2022-09-03T06:27:49;16.60;99.90
21616;DHT22;10970;48.714;9.584;2022-09-03T06:30:15;16.80;99.90
21616;DHT22;10970;48.714;9.584;2022-09-03T06:32:48;16.80;99.90
21616;DHT22;10970;48.714;9.584;2022-09-03T06:35:17;16.90;99.90
21616;DHT22;10970;48.714;9.584;2022-09-03T06:37:42;17.00;99.90
21616;DHT22;10970;48.714;9.584;2022-09-03T06:40:09;17.00;99.90
21616;DHT22;10970;48.714;9.584;2022-09-03T06:42:40;17.20;99.90
21616;DHT22;10970;48.714;9.584;2022-09-03T06:45:09;17.20;99.90
21616;DHT22;10970;48.714;9.584;2022-09-03T06:47:35;17.30;99.90
21616;DHT22;10970;48.714;9.584;2022-09-03T06:50:01;17.40;99.90
21616;DHT22;10970;48.714;9.584;2022-09-03T06:52:30;17.50;99.90
21616;DHT22;10970;48.714;9.584;2022-09-03T06:54:56;17.40;99.90
21616;DHT22;10970;48.714;9.584;2022-09-03T06:57:22;17.60;99.90
21616;DHT22;10970;48.714;9.584;2022-09-03T06:59:48;17.60;99.90
21616;DHT22;10970;48.714;9.584;2022-09-03T07:02:13;17.40;99.90
21616;DHT22;10970;48.714;9.584;2022-09-03T07:04:39;17.30;99.90
21616;DHT22;10970;48.714;9.584;2022-09-03T07:07:05;17.40;99.90
21616;DHT22;10970;48.714;9.584;2022-09-03T07:09:37;17.50;99.90
21616;DHT22;10970;48.714;9.584;2022-09-03T07:12:03;17.60;99.90
21616;DHT22;10970;48.714;9.584;2022-09-03T07:14:29;17.80;99.90
21616;DHT22;10970;48.714;9.584;2022-09-03T07:16:55;17.80;99.90
21616;DHT22;10970;48.714;9.584;2022-09-03T07:19:21;17.90;99.90
21616;DHT22;10970;48.714;9.584;2022-09-03T07:21:46;18.00;99.90
21616;DHT22;10970;48.714;9.584;2022-09-03T07:24:12;18.10;99.90
21616;DHT22;10970;48.714;9.584;2022-09-03T07:26:40;18.10;99.90
21616;DHT22;10970;48.714;9.584;2022-09-03T07:29:08;18.10;99.90
21616;DHT22;10970;48.714;9.584;2022-09-03T07:31:39;17.90;99.90
21616;DHT22;10970;48.714;9.584;2022-09-03T07:34:07;17.80;99.90
21616;DHT22;10970;48.714;9.584;2022-09-03T07:36:41;17.80;99.90
21616;DHT22;10970;48.714;9.584;2022-09-03T07:39:08;18.00;99.90
21616;DHT22;10970;48.714;9.584;2022-09-03T07:41:34;17.90;99.90
21616;DHT22;10970;48.714;9.584;2022-09-03T07:44:00;17.90;99.90
21616;DHT22;10970;48.714;9.584;2022-09-03T07:46:32;17.90;99.90
21616;DHT22;10970;48.714;9.584;2022-09-03T07:48:59;17.90;99.90
21616;DHT22;10970;48.714;9.584;2022-09-03T07:51:34;17.80;99.90
21616;DHT22;10970;48.714;9.584;2022-09-03T07:54:02;17.90;99.90
21616;DHT22;10970;48.714;9.584;2022-09-03T07:56:29;17.90;99.90
21616;DHT22;10970;48.714;9.584;2022-09-03T07:58:59;17.90;99.90
21616;DHT22;10970;48.714;9.584;2022-09-03T08:01:26;18.00;99.90
21616;DHT22;10970;48.714;9.584;2022-09-03T08:03:53;18.10;99.90
21616;DHT22;10970;48.714;9.584;2022-09-03T08:06:22;18.10;99.90
21616;DHT22;10970;48.714;9.584;2022-09-03T08:08:57;18.10;99.90
21616;DHT22;10970;48.714;9.584;2022-09-03T08:11:25;18.20;99.90
21616;DHT22;10970;48.714;9.584;2022-09-03T08:13:59;18.30;99.90
21616;DHT22;10970;48.714;9.584;2022-09-03T08:16:31;18.20;99.90
21616;DHT22;10970;48.714;9.584;2022-09-03T08:18:58;18.20;99.90
21616;DHT22;10970;48.714;9.584;2022-09-03T08:21:25;18.20;99.90
21616;DHT22;10970;48.714;9.584;2022-09-03T08:23:53;18.20;99.90
21616;DHT22;10970;48.714;9.584;2022-09-03T08:26:20;18.30;99.90
21616;DHT22;10970;48.714;9.584;2022-09-03T08:28:47;18.20;99.90
21616;DHT22;10970;48.714;9.584;2022-09-03T08:31:18;18.40;99.90
21616;DHT22;10970;48.714;9.584;2022-09-03T08:33:46;18.60;99.90
21616;DHT22;10970;48.714;9.584;2022-09-03T08:36:14;18.70;99.90
21616;DHT22;10970;48.714;9.584;2022-09-03T08:38:42;18.70;99.90
21616;DHT22;10970;48.714;9.584;2022-09-03T08:41:13;18.80;99.90
21616;DHT22;10970;48.714;9.584;2022-09-03T08:46:30;19.10;99.90
21616;DHT22;10970;48.714;9.584;2022-09-03T08:48:58;19.20;99.90
21616;DHT22;10970;48.714;9.584;2022-09-03T08:51:25;19.10;99.90
21616;DHT22;10970;48.714;9.584;2022-09-03T08:53:54;19.20;99.90
21616;DHT22;10970;48.714;9.584;2022-09-03T08:56:29;19.40;99.90
21616;DHT22;10970;48.714;9.584;2022-09-03T08:58:55;19.50;99.90
21616;DHT22;10970;48.714;9.584;2022-09-03T09:09:46;20.00;99.90
21616;DHT22;10970;48.714;9.584;2022-09-03T09:12:32;19.90;99.90
21616;DHT22;10970;48.714;9.584;2022-09-03T09:18:10;20.30;99.90
21616;DHT22;10970;48.714;9.584;2022-09-03T09:20:55;20.80;99.90
21616;DHT22;10970;48.714;9.584;2022-09-03T09:23:45;20.70;99.90
21616;DHT22;10970;48.714;9.584;2022-09-03T09:26:15;21.10;99.90
21616;DHT22;10970;48.714;9.584;2022-09-03T09:28:41;20.90;99.90
21616;DHT22;10970;48.714;9.584;2022-09-03T09:31:11;21.10;99.90
21616;DHT22;10970;48.714;9.584;2022-09-03T09:33:39;21.40;99.90
21616;DHT22;10970;48.714;9.584;2022-09-03T09:36:11;21.30;99.90
21616;DHT22;10970;48.714;9.584;2022-09-03T09:38:40;21.50;99.90
21616;DHT22;10970;48.714;9.584;2022-09-03T09:43:35;21.70;99.90
21616;DHT22;10970;48.714;9.584;2022-09-03T09:46:08;21.80;99.90
21616;DHT22;10970;48.714;9.584;2022-09-03T09:48:37;21.80;99.90
21616;DHT22;10970;48.714;9.584;2022-09-03T09:51:10;21.60;99.90
21616;DHT22;10970;48.714;9.584;2022-09-03T09:53:37;21.90;99.90
21616;DHT22;10970;48.714;9.584;2022-09-03T09:56:04;22.00;99.90
21616;DHT22;10970;48.714;9.584;2022-09-03T09:58:31;22.20;99.90
21616;DHT22;10970;48.714;9.584;2022-09-03T10:01:04;22.10;99.90
21616;DHT22;10970;48.714;9.584;2022-09-03T10:03:58;22.30;99.90
21616;DHT22;10970;48.714;9.584;2022-09-03T10:06:27;22.50;99.90
21616;DHT22;10970;48.714;9.584;2022-09-03T10:09:15;22.40;99.90
21616;DHT22;10970;48.714;9.584;2022-09-03T10:11:49;22.50;99.90
21616;DHT22;10970;48.714;9.584;2022-09-03T10:14:29;22.60;99.90
21616;DHT22;10970;48.714;9.584;2022-09-03T10:17:26;22.50;99.90
21616;DHT22;10970;48.714;9.584;2022-09-03T10:20:17;22.60;99.90
21616;DHT22;10970;48.714;9.584;2022-09-03T10:23:01;22.40;99.90
21616;DHT22;10970;48.714;9.584;2022-09-03T10:28:20;22.80;99.90
21616;DHT22;10970;48.714;9.584;2022-09-03T10:33:29;22.70;99.90
21616;DHT22;10970;48.714;9.584;2022-09-03T10:36:19;22.60;99.90
21616;DHT22;10970;48.714;9.584;2022-09-03T10:38:52;22.80;99.90
21616;DHT22;10970;48.714;9.584;2022-09-03T10:42:02;23.30;99.90
21616;DHT22;10970;48.714;9.584;2022-09-03T10:50:06;23.60;99.90
21616;DHT22;10970;48.714;9.584;2022-09-03T11:00:55;24.00;99.90
21616;DHT22;10970;48.714;9.584;2022-09-03T11:03:47;24.00;99.90
21616;DHT22;10970;48.714;9.584;2022-09-03T11:06:27;24.00;99.90
21616;DHT22;10970;48.714;9.584;2022-09-03T11:09:00;23.90;99.90
21616;DHT22;10970;48.714;9.584;2022-09-03T11:11:33;24.00;99.90
21616;DHT22;10970;48.714;9.584;2022-09-03T11:14:09;23.80;99.90
21616;DHT22;10970;48.714;9.584;2022-09-03T11:16:44;23.70;99.90
21616;DHT22;10970;48.714;9.584;2022-09-03T11:19:14;23.60;99.90
21616;DHT22;10970;48.714;9.584;2022-09-03T11:21:41;23.60;99.90
21616;DHT22;10970;48.714;9.584;2022-09-03T11:24:22;23.50;99.90
21616;DHT22;10970;48.714;9.584;2022-09-03T11:35:39;23.20;99.90
21616;DHT22;10970;48.714;9.584;2022-09-03T11:41:31;23.20;99.90
21616;DHT22;10970;48.714;9.584;2022-09-03T11:43:46;23.30;99.90
21616;DHT22;10970;48.714;9.584;2022-09-03T11:48:48;23.10;99.90
21616;DHT22;10970;48.714;9.584;2022-09-03T11:56:27;22.70;99.90
21616;DHT22;10970;48.714;9.584;2022-09-03T12:01:33;22.50;99.90
21616;DHT22;10970;48.714;9.584;2022-09-03T12:04:01;22.50;99.90
21616;DHT22;10970;48.714;9.584;2022-09-03T12:12:13;22.10;99.90
21616;DHT22;10970;48.714;9.584;2022-09-03T12:17:51;22.00;99.90
21616;DHT22;10970;48.714;9.584;2022-09-03T12:20:39;21.80;99.90
21616;DHT22;10970;48.714;9.584;2022-09-03T12:23:04;21.70;99.90
21616;DHT22;10970;48.714;9.584;2022-09-03T12:25:32;21.60;99.90
21616;DHT22;10970;48.714;9.584;2022-09-03T12:28:00;21.30;99.90
21616;DHT22;10970;48.714;9.584;2022-09-03T12:30:29;21.20;99.90
21616;DHT22;10970;48.714;9.584;2022-09-03T12:33:06;21.00;99.90
21616;DHT22;10970;48.714;9.584;2022-09-03T12:35:32;20.80;99.90
21616;DHT22;10970;48.714;9.584;2022-09-03T12:37:58;20.60;99.90
21616;DHT22;10970;48.714;9.584;2022-09-03T12:40:26;20.30;99.90
21616;DHT22;10970;48.714;9.584;2022-09-03T12:42:53;19.90;99.90
21616;DHT22;10970;48.714;9.584;2022-09-03T12:45:24;19.40;99.90
21616;DHT22;10970;48.714;9.584;2022-09-03T12:47:52;18.90;99.90
21616;DHT22;10970;48.714;9.584;2022-09-03T12:55:39;17.80;99.90
21616;DHT22;10970;48.714;9.584;2022-09-03T12:58:20;17.60;99.90
21616;DHT22;10970;48.714;9.584;2022-09-03T13:01:02;17.60;99.90
21616;DHT22;10970;48.714;9.584;2022-09-03T13:03:34;17.40;99.90
21616;DHT22;10970;48.714;9.584;2022-09-03T13:06:09;17.30;99.90
21616;DHT22;10970;48.714;9.584;2022-09-03T13:08:49;17.20;99.90
21616;DHT22;10970;48.714;9.584;2022-09-03T13:11:19;16.90;99.90
21616;DHT22;10970;48.714;9.584;2022-09-03T13:14:06;16.80;99.90
21616;DHT22;10970;48.714;9.584;2022-09-03T13:25:12;16.60;99.90
21616;DHT22;10970;48.714;9.584;2022-09-03T13:30:22;16.70;99.90
21616;DHT22;10970;48.714;9.584;2022-09-03T13:38:59;16.90;99.90
21616;DHT22;10970;48.714;9.584;2022-09-03T13:44:01;17.00;99.90
21616;DHT22;10970;48.714;9.584;2022-09-03T13:49:38;17.30;99.90
21616;DHT22;10970;48.714;9.584;2022-09-03T13:52:30;17.20;99.90
21616;DHT22;10970;48.714;9.584;2022-09-03T13:55:11;17.30;99.90
21616;DHT22;10970;48.714;9.584;2022-09-03T14:00:13;17.60;99.90
21616;DHT22;10970;48.714;9.584;2022-09-03T14:02:51;17.60;99.90
21616;DHT22;10970;48.714;9.584;2022-09-03T14:08:29;17.60;99.90
21616;DHT22;10970;48.714;9.584;2022-09-03T14:16:56;18.10;99.90
21616;DHT22;10970;48.714;9.584;2022-09-03T14:22:50;18.60;99.90
21616;DHT22;10970;48.714;9.584;2022-09-03T14:25:20;18.60;99.90
21616;DHT22;10970;48.714;9.584;2022-09-03T14:27:47;18.70;99.90
21616;DHT22;10970;48.714;9.584;2022-09-03T14:33:03;18.90;99.90
21616;DHT22;10970;48.714;9.584;2022-09-03T14:35:34;18.90;99.90
21616;DHT22;10970;48.714;9.584;2022-09-03T14:46:44;19.40;99.90
21616;DHT22;10970;48.714;9.584;2022-09-03T14:57:48;20.20;99.90
21616;DHT22;10970;48.714;9.584;2022-09-03T15:00:17;20.40;99.90
21616;DHT22;10970;48.714;9.584;2022-09-03T15:02:59;20.50;99.90
21616;DHT22;10970;48.714;9.584;2022-09-03T15:05:53;20.50;99.90
21616;DHT22;10970;48.714;9.584;2022-09-03T15:11:27;20.30;99.90
21616;DHT22;10970;48.714;9.584;2022-09-03T15:14:05;20.30;99.90
21616;DHT22;10970;48.714;9.584;2022-09-03T15:19:59;20.20;99.90
21616;DHT22;10970;48.714;9.584;2022-09-03T15:28:19;20.00;99.90
21616;DHT22;10970;48.714;9.584;2022-09-03T15:31:01;20.10;99.90
21616;DHT22;10970;48.714;9.584;2022-09-03T15:36:38;20.20;99.90
21616;DHT22;10970;48.714;9.584;2022-09-03T15:39:09;20.20;99.90
21616;DHT22;10970;48.714;9.584;2022-09-03T15:41:42;20.30;99.90
21616;DHT22;10970;48.714;9.584;2022-09-03T15:44:14;20.30;99.90
21616;DHT22;10970;48.714;9.584;2022-09-03T15:46:55;20.30;99.90
21616;DHT22;10970;48.714;9.584;2022-09-03T15:55:23;20.50;99.90
21616;DHT22;10970;48.714;9.584;2022-09-03T15:57:53;20.50;99.90
21616;DHT22;10970;48.714;9.584;2022-09-03T16:03:11;20.60;99.90
21616;DHT22;10970;48.714;9.584;2022-09-03T16:05:52;20.60;99.90
21616;DHT22;10970;48.714;9.584;2022-09-03T16:11:16;20.50;99.90
21616;DHT22;10970;48.714;9.584;2022-09-03T16:14:06;20.50;99.90
21616;DHT22;10970;48.714;9.584;2022-09-03T16:16:58;20.40;99.90
21616;DHT22;10970;48.714;9.584;2022-09-03T16:19:36;20.50;99.90
21616;DHT22;10970;48.714;9.584;2022-09-03T16:22:06;20.30;99.90
21616;DHT22;10970;48.714;9.584;2022-09-03T16:24:54;20.20;99.90
21616;DHT22;10970;48.714;9.584;2022-09-03T16:30:51;20.10;99.90
21616;DHT22;10970;48.714;9.584;2022-09-03T16:36:36;20.00;99.90
21616;DHT22;10970;48.714;9.584;2022-09-03T16:44:21;20.00;99.90
21616;DHT22;10970;48.714;9.584;2022-09-03T16:53:18;19.80;99.90
21616;DHT22;10970;48.714;9.584;2022-09-03T16:56:14;19.80;99.90
21616;DHT22;10970;48.714;9.584;2022-09-03T17:02:16;19.70;99.90
21616;DHT22;10970;48.714;9.584;2022-09-03T17:05:03;19.70;99.90
21616;DHT22;10970;48.714;9.584;2022-09-03T17:24:22;19.40;99.90
21616;DHT22;10970;48.714;9.584;2022-09-03T17:30:01;19.50;99.90
21616;DHT22;10970;48.714;9.584;2022-09-03T17:32:52;19.40;99.90
21616;DHT22;10970;48.714;9.584;2022-09-03T17:41:22;19.20;99.90
21616;DHT22;10970;48.714;9.584;2022-09-03T17:49:24;19.10;99.90
21616;DHT22;10970;48.714;9.584;2022-09-03T17:52:12;19.00;99.90
21616;DHT22;10970;48.714;9.584;2022-09-03T17:54:49;19.00;99.90
21616;DHT22;10970;48.714;9.584;2022-09-03T17:57:31;18.80;99.90
21616;DHT22;10970;48.714;9.584;2022-09-03T18:00:08;18.80;99.90
21616;DHT22;10970;48.714;9.584;2022-09-03T18:05:23;18.50;99.90
21616;DHT22;10970;48.714;9.584;2022-09-03T18:08:04;18.50;99.90
21616;DHT22;10970;48.714;9.584;2022-09-03T18:10:42;18.40;99.90
21616;DHT22;10970;48.714;9.584;2022-09-03T18:16:02;18.20;99.90
21616;DHT22;10970;48.714;9.584;2022-09-03T18:18:31;18.20;99.90
21616;DHT22;10970;48.714;9.584;2022-09-03T18:21:09;18.20;99.90
21616;DHT22;10970;48.714;9.584;2022-09-03T18:27:11;18.00;99.90
21616;DHT22;10970;48.714;9.584;2022-09-03T18:30:06;18.00;99.90
21616;DHT22;10970;48.714;9.584;2022-09-03T18:32:51;18.00;99.90
21616;DHT22;10970;48.714;9.584;2022-09-03T18:35:36;17.90;99.90
21616;DHT22;10970;48.714;9.584;2022-09-03T18:38:26;17.90;99.90
21616;DHT22;10970;48.714;9.584;2022-09-03T18:44:36;17.80;99.90
21616;DHT22;10970;48.714;9.584;2022-09-03T18:47:54;17.80;99.90
21616;DHT22;10970;48.714;9.584;2022-09-03T18:56:52;17.60;99.90
21616;DHT22;10970;48.714;9.584;2022-09-03T19:00:04;17.50;99.90
21616;DHT22;10970;48.714;9.584;2022-09-03T19:06:25;17.60;99.90
21616;DHT22;10970;48.714;9.584;2022-09-03T19:15:13;17.40;99.90
21616;DHT22;10970;48.714;9.584;2022-09-03T19:23:59;17.30;99.90
21616;DHT22;10970;48.714;9.584;2022-09-03T19:27:06;17.20;99.90
21616;DHT22;10970;48.714;9.584;2022-09-03T19:33:29;17.20;99.90
21616;DHT22;10970;48.714;9.584;2022-09-03T19:39:59;17.10;99.90
21616;DHT22;10970;48.714;9.584;2022-09-03T19:43:28;17.10;99.90
21616;DHT22;10970;48.714;9.584;2022-09-03T19:46:46;17.00;99.90
21616;DHT22;10970;48.714;9.584;2022-09-03T19:53:10;17.00;99.90
21616;DHT22;10970;48.714;9.584;2022-09-03T19:56:04;17.10;99.90
21616;DHT22;10970;48.714;9.584;2022-09-03T19:58:55;17.00;99.90
21616;DHT22;10970;48.714;9.584;2022-09-03T20:01:41;17.00;99.90
21616;DHT22;10970;48.714;9.584;2022-09-03T20:04:32;17.00;99.90
21616;DHT22;10970;48.714;9.584;2022-09-03T20:07:18;17.00;99.90
21616;DHT22;10970;48.714;9.584;2022-09-03T20:10:08;16.90;99.90
21616;DHT22;10970;48.714;9.584;2022-09-03T20:15:31;16.90;99.90
21616;DHT22;10970;48.714;9.584;2022-09-03T20:18:14;16.80;99.90
21616;DHT22;10970;48.714;9.584;2022-09-03T20:20:55;16.80;99.90
21616;DHT22;10970;48.714;9.584;2022-09-03T20:23:52;16.70;99.90
21616;DHT22;10970;48.714;9.584;2022-09-03T20:26:30;16.70;99.90
21616;DHT22;10970;48.714;9.584;2022-09-03T20:35:07;16.60;99.90
21616;DHT22;10970;48.714;9.584;2022-09-03T20:37:40;16.60;99.90
21616;DHT22;10970;48.714;9.584;2022-09-03T20:40:15;16.60;99.90
21616;DHT22;10970;48.714;9.584;2022-09-03T20:48:51;16.70;99.90
21616;DHT22;10970;48.714;9.584;2022-09-03T20:51:24;16.70;99.90
21616;DHT22;10970;48.714;9.584;2022-09-03T20:59:37;16.80;99.90
21616;DHT22;10970;48.714;9.584;2022-09-03T21:05:23;16.80;99.90
21616;DHT22;10970;48.714;9.584;2022-09-03T21:08:13;16.80;99.90
21616;DHT22;10970;48.714;9.584;2022-09-03T21:10:52;16.90;99.90
21616;DHT22;10970;48.714;9.584;2022-09-03T21:13:40;16.90;99.90
21616;DHT22;10970;48.714;9.584;2022-09-03T21:24:18;16.80;99.90
21616;DHT22;10970;48.714;9.584;2022-09-03T21:26:50;16.70;99.90
21616;DHT22;10970;48.714;9.584;2022-09-03T21:29:42;16.70;99.90
21616;DHT22;10970;48.714;9.584;2022-09-03T21:32:49;16.60;99.90
21616;DHT22;10970;48.714;9.584;2022-09-03T21:35:27;16.60;99.90
21616;DHT22;10970;48.714;9.584;2022-09-03T21:38:05;16.60;99.90
21616;DHT22;10970;48.714;9.584;2022-09-03T21:40:34;16.60;99.90
21616;DHT22;10970;48.714;9.584;2022-09-03T21:43:26;16.50;99.90
21616;DHT22;10970;48.714;9.584;2022-09-03T21:48:45;16.50;99.90
21616;DHT22;10970;48.714;9.584;2022-09-03T21:51:24;16.40;99.90
21616;DHT22;10970;48.714;9.584;2022-09-03T22:00:16;16.40;99.90
21616;DHT22;10970;48.714;9.584;2022-09-03T22:02:43;16.40;99.90
21616;DHT22;10970;48.714;9.584;2022-09-03T22:05:10;16.40;99.90
21616;DHT22;10970;48.714;9.584;2022-09-03T22:08:04;16.40;99.90
21616;DHT22;10970;48.714;9.584;2022-09-03T22:11:05;16.30;99.90
21616;DHT22;10970;48.714;9.584;2022-09-03T22:16:11;16.40;99.90
21616;DHT22;10970;48.714;9.584;2022-09-03T22:18:41;16.40;99.90
21616;DHT22;10970;48.714;9.584;2022-09-03T22:21:30;16.40;99.90